Time;durP1;ratioP1;P1;durP2;ratioP2;P2;SDS_P1;SDS_P2;PMS_P1;PMS_P2;Temp;Humidity;BMP_temperature;BMP_pressure;BME280_temperature;BME280_humidity;BME280_pressure;Samples;Min_cycle;Max_cycle;Signal;HPM_P1;HPM_P2
2024/03/09 00:00:22;;;;;;;44.40;16.20;;;;;;;;;;5030146;28;20265;-53
2024/03/09 00:02:52;;;;;;;36.23;15.00;;;;;;;;;;5029788;28;20651;-55
2024/03/09 00:05:19;;;;;;;37.60;15.43;;;;;;;;;;5037404;28;20242;-52
2024/03/09 00:07:45;;;;;;;45.37;16.13;;;;;;;;;;5029562;28;20671;-54
2024/03/09 00:10:11;;;;;;;39.07;14.50;;;;;;;;;;5029677;28;20176;-53
2024/03/09 00:12:38;;;;;;;37.63;15.67;;;;;;;;;;5029720;28;20262;-51
2024/03/09 00:15:05;;;;;;;40.07;15.83;;;;;;;;;;5029443;28;20200;-55
2024/03/09 00:17:31;;;;;;;41.37;15.53;;;;;;;;;;5029293;28;20176;-51
2024/03/09 00:19:58;;;;;;;43.20;16.37;;;;;;;;;;5029672;28;20192;-51
2024/03/09 00:22:25;;;;;;;38.47;16.00;;;;;;;;;;5029561;28;20882;-53
2024/03/09 00:24:52;;;;;;;41.70;15.40;;;;;;;;;;5029564;28;20207;-51
2024/03/09 00:27:24;;;;;;;43.83;16.50;;;;;;;;;;5029416;28;20184;-53
2024/03/09 00:29:56;;;;;;;44.90;16.70;;;;;;;;;;5029197;28;20191;-52
2024/03/09 00:32:22;;;;;;;44.80;17.17;;;;;;;;;;5029446;28;20183;-52
2024/03/09 00:34:48;;;;;;;44.37;17.57;;;;;;;;;;5029546;28;20671;-56
2024/03/09 00:37:14;;;;;;;41.73;16.97;;;;;;;;;;5029420;28;20263;-56
2024/03/09 00:39:42;;;;;;;42.00;17.13;;;;;;;;;;5029052;28;20187;-53
2024/03/09 00:42:09;;;;;;;42.27;16.93;;;;;;;;;;5029188;28;20241;-54
2024/03/09 00:44:35;;;;;;;44.40;16.87;;;;;;;;;;5029453;28;20310;-54
2024/03/09 00:47:01;;;;;;;43.63;17.30;;;;;;;;;;5028970;28;20188;-51
2024/03/09 00:49:31;;;;;;;48.47;17.53;;;;;;;;;;5037420;28;20180;-53
2024/03/09 00:52:00;;;;;;;46.27;16.90;;;;;;;;;;5030563;28;20187;-53
2024/03/09 00:54:26;;;;;;;43.10;16.67;;;;;;;;;;5035578;28;20214;-57
2024/03/09 00:56:53;;;;;;;43.80;16.77;;;;;;;;;;5045626;28;20198;-53
2024/03/09 00:59:19;;;;;;;44.03;17.10;;;;;;;;;;5028852;28;20191;-54
2024/03/09 01:01:48;;;;;;;44.47;17.30;;;;;;;;;;5029222;28;20211;-54
2024/03/09 01:04:15;;;;;;;42.67;16.43;;;;;;;;;;5037719;28;20210;-55
2024/03/09 01:06:41;;;;;;;43.43;16.20;;;;;;;;;;5043214;28;20190;-53
2024/03/09 01:09:07;;;;;;;39.07;16.13;;;;;;;;;;5040693;28;20198;-58
2024/03/09 01:11:33;;;;;;;40.83;16.20;;;;;;;;;;5043268;28;20762;-53
2024/03/09 01:14:00;;;;;;;37.60;14.20;;;;;;;;;;5038800;28;20203;-55
2024/03/09 01:16:26;;;;;;;35.90;14.27;;;;;;;;;;5038132;28;20196;-53
2024/03/09 01:18:52;;;;;;;36.60;14.37;;;;;;;;;;5040916;28;20195;-51
2024/03/09 01:21:19;;;;;;;39.37;15.40;;;;;;;;;;5032964;28;20203;-55
2024/03/09 01:23:45;;;;;;;38.60;15.47;;;;;;;;;;5033212;28;20226;-53
2024/03/09 01:26:11;;;;;;;37.13;14.10;;;;;;;;;;5041062;28;20260;-52
2024/03/09 01:28:37;;;;;;;36.53;14.93;;;;;;;;;;5039127;28;20183;-51
2024/03/09 01:31:03;;;;;;;39.57;14.43;;;;;;;;;;5034251;28;20192;-52
2024/03/09 01:33:30;;;;;;;36.30;14.00;;;;;;;;;;5038392;28;20263;-53
2024/03/09 01:35:56;;;;;;;33.13;13.93;;;;;;;;;;5035120;28;20222;-53
2024/03/09 01:38:22;;;;;;;34.57;14.20;;;;;;;;;;5041000;28;20226;-52
2024/03/09 01:40:48;;;;;;;40.13;14.57;;;;;;;;;;5041343;28;20234;-54
2024/03/09 01:43:16;;;;;;;37.50;14.63;;;;;;;;;;5032659;28;20575;-54
2024/03/09 01:45:44;;;;;;;40.20;15.47;;;;;;;;;;5032820;28;20196;-54
2024/03/09 01:48:11;;;;;;;41.40;16.27;;;;;;;;;;5031885;28;20188;-54
2024/03/09 01:50:37;;;;;;;39.23;16.17;;;;;;;;;;5039200;28;20190;-55
2024/03/09 01:53:04;;;;;;;43.33;15.10;;;;;;;;;;5042027;28;20199;-53
2024/03/09 01:55:31;;;;;;;38.00;13.67;;;;;;;;;;5032636;28;20294;-56
2024/03/09 01:57:58;;;;;;;33.33;13.43;;;;;;;;;;5048223;28;20197;-51
2024/03/09 02:00:24;;;;;;;38.30;14.97;;;;;;;;;;5036990;28;20304;-57
2024/03/09 02:02:50;;;;;;;41.47;15.70;;;;;;;;;;5043987;28;20651;-56
2024/03/09 02:05:16;;;;;;;37.17;14.77;;;;;;;;;;5043868;28;20183;-57
2024/03/09 02:07:44;;;;;;;40.63;14.60;;;;;;;;;;5044232;28;20261;-57
2024/03/09 02:10:11;;;;;;;36.20;14.53;;;;;;;;;;5043327;28;20643;-51
2024/03/09 02:12:37;;;;;;;33.67;14.77;;;;;;;;;;5037311;28;20318;-52
2024/03/09 02:15:05;;;;;;;39.30;14.47;;;;;;;;;;5048515;28;20214;-55
2024/03/09 02:17:33;;;;;;;39.47;14.03;;;;;;;;;;5037267;28;20190;-54
2024/03/09 02:19:59;;;;;;;39.30;14.37;;;;;;;;;;5050807;28;20241;-55
2024/03/09 02:22:27;;;;;;;40.53;14.00;;;;;;;;;;5032016;28;20215;-55
2024/03/09 02:24:56;;;;;;;34.70;14.03;;;;;;;;;;5032524;28;20231;-54
2024/03/09 02:27:25;;;;;;;43.77;16.77;;;;;;;;;;5038264;28;20191;-58
2024/03/09 02:29:52;;;;;;;34.07;14.00;;;;;;;;;;5040385;28;20198;-57
2024/03/09 02:32:18;;;;;;;41.50;16.47;;;;;;;;;;5040317;28;20191;-55
2024/03/09 02:34:44;;;;;;;35.87;13.90;;;;;;;;;;5047608;28;20223;-55
2024/03/09 02:37:10;;;;;;;35.83;15.13;;;;;;;;;;5032092;28;20196;-54
2024/03/09 02:39:36;;;;;;;39.40;15.17;;;;;;;;;;5039374;28;20199;-55
2024/03/09 02:42:04;;;;;;;41.17;15.70;;;;;;;;;;5033384;28;20595;-54
2024/03/09 02:44:33;;;;;;;38.10;15.33;;;;;;;;;;5045839;28;20216;-57
2024/03/09 02:46:59;;;;;;;44.10;16.10;;;;;;;;;;5032586;28;20286;-54
2024/03/09 02:49:25;;;;;;;38.07;15.43;;;;;;;;;;5046268;28;20282;-53
2024/03/09 02:51:54;;;;;;;40.80;14.97;;;;;;;;;;5031645;28;20591;-54
2024/03/09 02:54:20;;;;;;;37.07;14.77;;;;;;;;;;5038778;28;20203;-54
2024/03/09 02:56:46;;;;;;;38.83;13.90;;;;;;;;;;5031293;28;20530;-54
2024/03/09 02:59:12;;;;;;;37.27;15.23;;;13.40;99.90;;;;;;5030781;28;20186;-56
2024/03/09 03:01:37;;;;;;;36.10;13.90;;;0.10;99.90;;;;;;5031539;28;20215;-55
2024/03/09 03:04:03;;;;;;;39.53;14.50;;;0.00;99.90;;;;;;5031272;28;20628;-54
2024/03/09 03:06:31;;;;;;;39.37;14.90;;;0.00;99.90;;;;;;5031065;28;20192;-56
2024/03/09 03:09:05;;;;;;;33.60;14.63;;;0.00;99.90;;;;;;5030694;28;20222;-55
2024/03/09 03:11:32;;;;;;;42.70;15.07;;;0.00;99.90;;;;;;5031379;28;20238;-54
2024/03/09 03:13:59;;;;;;;40.37;15.37;;;0.00;99.90;;;;;;5032063;28;20261;-54
2024/03/09 03:16:35;;;;;;;38.40;15.10;;;-0.10;99.90;;;;;;5037928;28;20196;-56
2024/03/09 03:19:09;;;;;;;35.97;14.53;;;0.00;99.90;;;;;;5040419;28;20187;-51
2024/03/09 03:21:40;;;;;;;41.27;14.13;;;0.10;99.90;;;;;;5042658;28;20220;-55
2024/03/09 03:24:09;;;;;;;36.43;14.50;;;0.00;99.90;;;;;;5031868;28;20196;-54
2024/03/09 03:26:35;;;;;;;34.97;14.77;;;0.00;99.90;;;;;;5036805;28;20191;-55
2024/03/09 03:29:01;;;;;;;43.20;15.47;;;0.00;99.90;;;;;;5032098;28;20267;-54
2024/03/09 03:31:28;;;;;;;38.27;14.50;;;0.00;99.90;;;;;;5036096;28;20270;-55
2024/03/09 03:33:56;;;;;;;35.73;13.60;;;0.00;99.90;;;;;;5049881;28;20257;-55
2024/03/09 03:36:23;;;;;;;33.43;13.87;;;-0.10;99.90;;;;;;5030555;28;20216;-53
2024/03/09 03:38:50;;;;;;;44.33;14.17;;;-0.10;99.90;;;;;;5037337;28;20191;-55
2024/03/09 03:41:18;;;;;;;41.87;15.23;;;-0.10;99.90;;;;;;5050403;28;20294;-56
2024/03/09 03:43:44;;;;;;;39.97;14.63;;;-0.20;99.90;;;;;;5034901;28;20216;-53
2024/03/09 03:46:12;;;;;;;36.53;14.03;;;-0.20;99.90;;;;;;5030359;28;20854;-55
2024/03/09 03:48:44;;;;;;;34.93;13.47;;;-0.20;99.90;;;;;;5030145;28;20183;-52
2024/03/09 03:51:12;;;;;;;32.37;13.40;;;-0.20;99.90;;;;;;5030446;28;20215;-57
2024/03/09 03:53:38;;;;;;;48.10;15.73;;;-0.30;99.90;;;;;;5030259;28;20238;-54
2024/03/09 03:56:04;;;;;;;36.97;14.20;;;-0.30;99.90;;;;;;5030276;28;20195;-53
2024/03/09 03:58:30;;;;;;;39.33;14.83;;;-0.40;99.90;;;;;;5029913;28;20245;-57
2024/03/09 04:00:56;;;;;;;37.43;14.00;;;-0.50;99.90;;;;;;5030083;28;20210;-53
2024/03/09 04:03:22;;;;;;;40.37;14.93;;;-0.50;99.90;;;;;;5030213;28;20211;-55
2024/03/09 04:05:48;;;;;;;35.93;14.00;;;-0.50;99.90;;;;;;5030161;28;20180;-55
2024/03/09 04:08:15;;;;;;;39.33;14.73;;;-0.50;99.90;;;;;;5029347;28;20184;-54
2024/03/09 04:10:43;;;;;;;42.17;14.73;;;-0.50;99.90;;;;;;5030142;28;20227;-53
2024/03/09 04:13:11;;;;;;;38.07;13.57;;;-0.60;99.90;;;;;;5032428;28;20191;-55
2024/03/09 04:15:37;;;;;;;32.63;13.67;;;-0.70;99.90;;;;;;5035074;28;20195;-55
2024/03/09 04:18:04;;;;;;;35.10;13.70;;;-0.70;99.90;;;;;;5037909;28;20199;-56
2024/03/09 04:20:34;;;;;;;42.87;15.13;;;-0.70;99.90;;;;;;5029785;28;20211;-57
2024/03/09 04:23:03;;;;;;;42.47;14.67;;;-0.70;99.90;;;;;;5029829;28;20237;-55
2024/03/09 04:25:29;;;;;;;42.30;14.43;;;-0.70;99.90;;;;;;5035483;28;20190;-56
2024/03/09 04:27:55;;;;;;;37.10;13.90;;;-0.70;99.90;;;;;;5048329;28;20270;-55
2024/03/09 04:30:23;;;;;;;37.67;14.23;;;-0.70;99.90;;;;;;5029665;28;20270;-54
2024/03/09 04:32:49;;;;;;;38.90;14.73;;;-0.80;99.90;;;;;;5037883;28;20726;-54
2024/03/09 04:35:14;;;;;;;36.93;14.20;;;-0.70;99.90;;;;;;5037594;28;20214;-53
2024/03/09 04:37:41;;;;;;;39.67;14.20;;;-0.70;99.90;;;;;;5037334;28;20186;-54
2024/03/09 04:40:14;;;;;;;34.53;14.07;;;-0.70;99.90;;;;;;5029770;28;20196;-55
2024/03/09 04:42:42;;;;;;;39.17;14.43;;;-0.70;99.90;;;;;;5029879;28;20265;-53
2024/03/09 04:45:10;;;;;;;34.83;14.10;;;-0.60;99.90;;;;;;5029512;28;20888;-53
2024/03/09 04:47:37;;;;;;;37.47;13.87;;;-0.70;99.90;;;;;;5028754;28;20648;-54
2024/03/09 04:50:03;;;;;;;36.43;13.63;;;-0.70;99.90;;;;;;5029184;28;20685;-51
2024/03/09 04:52:29;;;;;;;38.23;13.93;;;-0.70;99.90;;;;;;5029536;28;20644;-54
2024/03/09 04:54:54;;;;;;;33.40;13.80;;;-0.70;99.90;;;;;;5037427;28;20214;-55
2024/03/09 04:57:24;;;;;;;36.67;14.67;;;-0.80;99.90;;;;;;5033461;28;20217;-54
2024/03/09 04:59:50;;;;;;;32.23;12.97;;;-0.80;99.90;;;;;;5032574;28;20270;-55
2024/03/09 05:02:17;;;;;;;30.73;12.80;;;-0.80;99.90;;;;;;5037363;28;20231;-53
2024/03/09 05:04:43;;;;;;;34.63;13.87;;;-0.80;99.90;;;;;;5029450;28;20265;-53
2024/03/09 05:07:09;;;;;;;31.60;13.03;;;-0.80;99.90;;;;;;5029078;28;20430;-57
2024/03/09 05:09:37;;;;;;;39.43;13.50;;;-0.90;99.90;;;;;;5029143;28;20183;-52
2024/03/09 05:12:03;;;;;;;34.23;14.10;;;-1.00;99.90;;;;;;5045589;28;20202;-51
2024/03/09 05:14:30;;;;;;;33.90;12.80;;;-0.90;99.90;;;;;;5034416;28;20218;-54
2024/03/09 05:16:56;;;;;;;32.90;13.47;;;-0.90;99.90;;;;;;5040646;28;20211;-55
2024/03/09 05:19:22;;;;;;;33.10;13.07;;;-0.80;99.90;;;;;;5044579;28;20246;-54
2024/03/09 05:21:51;;;;;;;38.37;14.23;;;-0.80;99.90;;;;;;5045355;28;20591;-56
2024/03/09 05:24:17;;;;;;;33.33;13.00;;;-0.80;99.90;;;;;;5049225;28;20222;-55
2024/03/09 05:26:43;;;;;;;39.97;15.03;;;-0.80;99.90;;;;;;5042218;28;20270;-54
2024/03/09 05:29:12;;;;;;;36.47;14.43;;;-0.80;99.90;;;;;;5028479;28;20271;-56
2024/03/09 05:31:39;;;;;;;37.27;14.33;;;-0.80;99.90;;;;;;5029227;28;20195;-56
2024/03/09 05:34:07;;;;;;;37.60;13.80;;;-0.70;99.90;;;;;;5047533;28;20261;-52
2024/03/09 05:36:32;;;;;;;34.00;13.80;;;-0.70;99.90;;;;;;5043056;28;20725;-52
2024/03/09 05:38:58;;;;;;;32.40;13.17;;;-0.70;99.90;;;;;;5028429;28;20195;-53
2024/03/09 05:41:24;;;;;;;40.93;14.53;;;-0.70;99.90;;;;;;5033398;28;20210;-51
2024/03/09 05:43:49;;;;;;;37.37;14.40;;;-0.70;99.90;;;;;;5032487;28;20215;-54
2024/03/09 05:46:19;;;;;;;37.33;13.63;;;-0.70;99.90;;;;;;5028755;28;20188;-54
2024/03/09 05:48:45;;;;;;;40.47;14.43;;;-0.70;99.90;;;;;;5011383;28;20247;-52
2024/03/09 05:51:14;;;;;;;35.37;13.77;;;-0.70;99.90;;;;;;5029245;28;20219;-51
2024/03/09 05:53:42;;;;;;;34.23;13.13;;;-0.60;99.90;;;;;;5029261;28;20203;-53
2024/03/09 05:56:10;;;;;;;33.03;13.80;;;-0.60;99.90;;;;;;5037097;28;20556;-53
2024/03/09 05:58:35;;;;;;;38.77;14.13;;;-0.60;99.90;;;;;;5028735;28;20234;-56
2024/03/09 06:01:01;;;;;;;35.60;13.60;;;-0.60;99.90;;;;;;5029113;28;20207;-54
2024/03/09 06:03:26;;;;;;;37.03;13.80;;;-0.50;99.90;;;;;;5031075;28;20305;-54
2024/03/09 06:05:53;;;;;;;38.27;14.60;;;-0.60;99.90;;;;;;5031505;28;20624;-57
2024/03/09 06:08:19;;;;;;;37.53;14.57;;;-0.60;99.90;;;;;;5042649;28;20183;-53
2024/03/09 06:10:44;;;;;;;32.50;13.17;;;-0.60;99.90;;;;;;5036152;28;20194;-52
2024/03/09 06:13:11;;;;;;;37.80;15.23;;;-0.50;99.90;;;;;;5047898;28;20207;-57
2024/03/09 06:15:37;;;;;;;37.07;14.33;;;-0.50;99.90;;;;;;5031667;28;20670;-55
2024/03/09 06:18:02;;;;;;;33.83;13.67;;;-0.40;99.90;;;;;;5030715;28;20180;-55
2024/03/09 06:20:28;;;;;;;37.13;13.83;;;-0.50;99.90;;;;;;5039866;28;20191;-52
2024/03/09 06:22:55;;;;;;;40.63;14.87;;;-0.50;99.90;;;;;;5039458;28;20618;-55
2024/03/09 06:25:25;;;;;;;33.63;14.50;;;-0.50;99.90;;;;;;5033478;28;20275;-53
2024/03/09 06:27:55;;;;;;;36.37;13.90;;;-0.40;99.90;;;;;;5039700;28;20180;-52
2024/03/09 06:30:23;;;;;;;35.80;14.80;;;-0.30;99.90;;;;;;5043876;28;20187;-54
2024/03/09 06:32:49;;;;;;;41.70;15.63;;;-0.20;99.90;;;;;;5051443;28;20697;-55
2024/03/09 06:35:19;;;;;;;41.43;14.67;;;-0.20;99.90;;;;;;5039719;28;20247;-53
2024/03/09 06:37:59;;;;;;;38.50;15.97;;;-0.10;99.90;;;;;;5030605;28;20270;-53
2024/03/09 06:40:30;;;;;;;45.10;17.60;;;-0.10;99.90;;;;;;5035846;28;20179;-57
2024/03/09 06:43:00;;;;;;;44.17;16.80;;;-0.10;99.90;;;;;;5034306;28;20198;-55
2024/03/09 06:45:26;;;;;;;37.43;16.50;;;0.00;99.90;;;;;;5042610;28;20202;-52
2024/03/09 06:47:52;;;;;;;43.53;16.80;;;0.00;99.90;;;;;;5033916;28;20747;-54
2024/03/09 06:50:18;;;;;;;40.50;16.00;;;0.10;99.90;;;;;;5031413;28;20188;-54
2024/03/09 06:52:45;;;;;;;37.30;15.07;;;0.20;99.90;;;;;;5038724;28;20201;-56
2024/03/09 06:55:12;;;;;;;34.37;14.73;;;0.30;99.90;;;;;;5053018;28;20272;-53
2024/03/09 06:57:37;;;;;;;40.20;16.13;;;0.40;99.90;;;;;;5052601;28;20188;-54
2024/03/09 07:00:12;;;;;;;39.70;16.37;;;0.40;99.90;;;;;;5050752;28;20201;-59
2024/03/09 07:02:37;;;;;;;42.63;15.57;;;0.50;99.90;;;;;;5056230;28;20292;-57
2024/03/09 07:05:04;;;;;;;41.43;15.30;;;0.60;99.90;;;;;;5052765;28;20226;-56
2024/03/09 07:07:33;;;;;;;35.30;14.60;;;0.60;99.90;;;;;;5050582;28;20205;-58
2024/03/09 07:09:59;;;;;;;43.77;15.90;;;0.70;99.90;;;;;;5056758;28;20190;-58
2024/03/09 07:12:25;;;;;;;34.03;14.47;;;0.70;99.90;;;;;;5054569;28;20213;-57
2024/03/09 07:14:50;;;;;;;43.90;16.20;;;0.80;99.90;;;;;;5051442;28;20290;-56
2024/03/09 07:17:17;;;;;;;38.00;15.90;;;0.90;99.90;;;;;;5054878;28;20186;-57
2024/03/09 07:19:45;;;;;;;41.23;16.37;;;1.00;99.90;;;;;;5053838;28;20199;-57
2024/03/09 07:22:13;;;;;;;40.80;16.33;;;1.00;99.90;;;;;;5053898;28;20309;-58
2024/03/09 07:24:42;;;;;;;43.90;17.40;;;1.10;99.90;;;;;;5048882;28;20278;-53
2024/03/09 07:27:08;;;;;;;41.83;17.57;;;;;;;;;;5050893;28;20193;-60
2024/03/09 07:29:38;;;;;;;46.63;18.73;;;;;;;;;;5053694;28;20179;-54
2024/03/09 07:32:06;;;;;;;40.30;17.27;;;;;;;;;;5039931;28;20365;-58
2024/03/09 07:34:33;;;;;;;38.93;16.70;;;;;;;;;;5035318;28;20213;-54
2024/03/09 07:37:00;;;;;;;38.10;17.07;;;;;;;;;;5049161;28;20190;-55
2024/03/09 07:39:30;;;;;;;44.47;16.17;;;;;;;;;;5029436;28;20672;-53
2024/03/09 07:41:56;;;;;;;37.93;16.83;;;;;;;;;;5046251;28;20619;-51
2024/03/09 07:44:22;;;;;;;41.50;15.00;;;;;;;;;;5029825;28;20285;-52
2024/03/09 07:46:47;;;;;;;37.93;15.40;;;1.30;99.90;;;;;;5037325;28;20202;-52
2024/03/09 07:49:13;;;;;;;37.87;16.10;;;2.20;99.90;;;;;;5029764;28;20238;-54
2024/03/09 07:51:39;;;;;;;41.33;16.60;;;2.60;99.90;;;;;;5036105;28;20666;-52
2024/03/09 07:54:05;;;;;;;38.37;16.80;;;2.80;99.90;;;;;;5032745;28;20298;-58
2024/03/09 07:56:30;;;;;;;41.73;16.57;;;3.10;99.90;;;;;;5036005;28;20270;-59
2024/03/09 07:58:56;;;;;;;44.37;16.90;;;;;;;;;;5029121;28;20191;-59
2024/03/09 08:01:22;;;;;;;46.57;17.47;;;3.50;99.90;;;;;;5029164;28;20222;-56
2024/03/09 08:03:48;;;;;;;31.77;15.40;;;4.40;99.90;;;;;;5037235;28;20214;-60
2024/03/09 08:06:13;;;;;;;37.03;17.60;;;4.80;99.90;;;;;;5038079;28;20219;-57
2024/03/09 08:08:43;;;;;;;36.33;16.30;;;5.30;99.90;;;;;;5037006;28;20238;-59
2024/03/09 08:11:09;;;;;;;35.43;16.47;;;5.80;99.90;;;;;;5045560;28;20556;-59
2024/03/09 08:13:36;;;;;;;38.40;16.37;;;;;;;;;;5017087;28;20269;-60
2024/03/09 08:16:02;;;;;;;36.30;16.50;;;;;;;;;;5048871;28;20222;-58
2024/03/09 08:18:28;;;;;;;53.73;23.80;;;;;;;;;;5044112;28;20567;-59
2024/03/09 08:20:53;;;;;;;50.43;23.07;;;6.00;99.90;;;;;;5037321;28;20214;-58
2024/03/09 08:23:19;;;;;;;43.20;20.00;;;7.50;99.90;;;;;;5032594;28;20199;-59
2024/03/09 08:25:45;;;;;;;37.50;16.37;;;7.80;99.90;;;;;;5033537;28;20223;-55
2024/03/09 08:28:12;;;;;;;33.90;15.80;;;8.30;99.90;;;;;;5039089;28;20259;-58
2024/03/09 08:30:38;;;;;;;34.63;15.57;;;8.60;99.90;;;;;;5040915;28;20195;-60
2024/03/09 08:33:04;;;;;;;32.50;14.00;;;8.90;99.90;;;;;;5030935;28;20198;-60
2024/03/09 08:35:33;;;;;;;31.87;15.30;;;9.40;99.90;;;;;;5029169;28;20184;-60
2024/03/09 08:37:59;;;;;;;29.63;14.10;;;9.80;99.90;;;;;;5037355;28;20194;-60
2024/03/09 08:40:30;;;;;;;29.40;13.67;;;9.90;99.90;;;;;;5036349;28;20232;-60
2024/03/09 08:42:56;;;;;;;24.87;12.53;;;10.20;99.90;;;;;;5028729;28;20234;-60
2024/03/09 08:45:24;;;;;;;24.97;12.10;;;10.50;99.90;;;;;;5028828;28;20207;-61
2024/03/09 08:47:51;;;;;;;27.17;12.93;;;10.70;99.90;;;;;;5028295;28;20266;-60
2024/03/09 08:50:17;;;;;;;25.37;11.83;;;10.90;99.90;;;;;;5040205;28;20229;-60
2024/03/09 08:52:45;;;;;;;22.60;12.43;;;10.70;99.90;;;;;;5033931;28;20180;-59
2024/03/09 08:55:11;;;;;;;25.90;12.50;;;10.60;99.90;;;;;;5037535;28;20215;-60
2024/03/09 08:57:38;;;;;;;23.40;11.97;;;10.70;99.90;;;;;;5034153;28;20187;-60
2024/03/09 09:00:05;;;;;;;22.00;11.13;;;10.90;99.90;;;;;;5032454;28;20207;-60
2024/03/09 09:02:31;;;;;;;22.47;11.63;;;10.80;99.90;;;;;;5044205;28;20207;-59
2024/03/09 09:04:57;;;;;;;19.57;10.17;;;10.60;99.90;;;;;;5036455;28;20218;-59
2024/03/09 09:07:23;;;;;;;24.00;10.67;;;10.60;99.90;;;;;;5031484;28;20213;-59
2024/03/09 09:09:50;;;;;;;21.33;10.77;;;10.70;99.90;;;;;;5040432;28;20333;-60
2024/03/09 09:12:17;;;;;;;23.83;11.53;;;10.70;99.90;;;;;;5039106;28;20276;-59
2024/03/09 09:14:43;;;;;;;21.87;11.03;;;10.70;99.90;;;;;;5042948;28;20578;-60
2024/03/09 09:17:09;;;;;;;22.03;11.53;;;10.70;99.90;;;;;;5034311;28;20219;-58
2024/03/09 09:19:38;;;;;;;23.07;10.77;;;10.50;99.90;;;;;;5040579;28;20757;-60
2024/03/09 09:22:06;;;;;;;22.60;11.40;;;10.50;99.90;;;;;;5033842;28;20242;-55
2024/03/09 09:24:36;;;;;;;20.73;10.90;;;10.70;99.90;;;;;;5042069;28;20281;-61
2024/03/09 09:27:02;;;;;;;23.30;11.33;;;10.60;99.90;;;;;;5044127;28;20194;-58
2024/03/09 09:29:31;;;;;;;22.10;10.90;;;11.10;99.90;;;;;;5037927;28;20179;-60
2024/03/09 09:31:57;;;;;;;20.50;10.70;;;11.40;99.90;;;;;;5047365;28;20305;-60
2024/03/09 09:34:23;;;;;;;24.10;11.00;;;11.70;99.90;;;;;;5044136;28;20629;-56
2024/03/09 09:36:52;;;;;;;19.90;10.27;;;11.80;99.90;;;;;;5029888;28;20194;-57
2024/03/09 09:39:20;;;;;;;22.73;11.57;;;11.60;99.90;;;;;;5047847;28;20179;-52
2024/03/09 09:41:46;;;;;;;23.03;11.33;;;11.80;99.90;;;;;;5040575;28;20208;-58
2024/03/09 09:44:14;;;;;;;22.00;11.43;;;11.80;99.90;;;;;;5040246;28;20647;-54
2024/03/09 09:46:40;;;;;;;22.73;10.97;;;11.70;99.90;;;;;;5031929;28;20874;-55
2024/03/09 09:49:08;;;;;;;22.23;10.70;;;11.90;99.90;;;;;;5039936;28;20183;-56
2024/03/09 09:51:38;;;;;;;19.33;10.30;;;12.20;99.90;;;;;;5032381;28;20191;-57
2024/03/09 09:54:05;;;;;;;24.47;10.63;;;12.20;99.90;;;;;;5031920;28;20210;-51
2024/03/09 09:56:31;;;;;;;22.80;10.77;;;11.60;99.90;;;;;;5037069;28;20187;-56
2024/03/09 09:58:58;;;;;;;18.00;10.03;;;11.40;99.90;;;;;;5034872;28;20254;-55
2024/03/09 10:01:23;;;;;;;20.53;10.43;;;11.40;99.90;;;;;;5043733;28;20215;-53
2024/03/09 10:03:49;;;;;;;18.73;10.13;;;11.70;99.90;;;;;;5035929;28;20211;-54
2024/03/09 10:06:22;;;;;;;18.77;9.83;;;12.20;99.90;;;;;;5048055;28;20671;-52
2024/03/09 10:08:48;;;;;;;19.47;10.10;;;12.80;99.90;;;;;;5031495;28;20184;-55
2024/03/09 10:11:17;;;;;;;20.90;9.97;;;13.30;99.90;;;;;;5042413;28;20732;-53
2024/03/09 10:13:43;;;;;;;20.13;9.93;;;13.40;99.90;;;;;;5043377;28;20195;-51
2024/03/09 10:16:12;;;;;;;18.23;9.77;;;13.60;99.90;;;;;;5032832;28;20179;-58
2024/03/09 10:18:45;;;;;;;17.97;9.57;;;13.50;99.90;;;;;;5031188;28;20207;-52
2024/03/09 10:21:11;;;;;;;19.50;10.17;;;13.60;99.90;;;;;;5041454;28;20701;-56
2024/03/09 10:23:44;;;;;;;19.73;10.60;;;13.60;99.90;;;;;;5037059;28;20225;-58
2024/03/09 10:26:10;;;;;;;19.73;10.10;;;13.80;99.90;;;;;;5031410;28;20218;-52
2024/03/09 10:28:37;;;;;;;17.83;9.63;;;14.20;99.90;;;;;;5036480;28;20651;-53
2024/03/09 10:31:03;;;;;;;19.87;10.13;;;14.60;99.90;;;;;;5024988;28;20187;-52
2024/03/09 10:33:36;;;;;;;17.83;9.77;;;15.00;99.90;;;;;;5038041;28;20814;-56
2024/03/09 10:36:04;;;;;;;18.87;9.60;;;14.90;99.90;;;;;;5047541;28;20191;-56
2024/03/09 10:38:30;;;;;;;17.73;9.33;;;15.20;99.90;;;;;;5035773;28;20214;-54
2024/03/09 10:41:00;;;;;;;17.37;9.83;;;15.30;99.90;;;;;;5042859;28;20239;-56
2024/03/09 10:43:29;;;;;;;17.13;9.20;;;15.30;99.90;;;;;;5038766;28;20195;-52
2024/03/09 10:46:01;;;;;;;19.50;9.60;;;15.40;99.90;;;;;;5039429;28;20192;-53
2024/03/09 10:48:29;;;;;;;17.73;9.70;;;15.80;99.90;;;;;;5030084;28;20176;-58
2024/03/09 10:51:03;;;;;;;18.67;9.90;;;15.80;99.90;;;;;;5031017;28;20647;-53
2024/03/09 10:54:06;;;;;;;19.90;10.37;;;15.50;99.90;;;;;;5035602;28;20226;-55
2024/03/09 10:56:32;;;;;;;22.67;9.30;;;15.50;99.90;;;;;;5030690;28;20670;-57
2024/03/09 10:59:00;;;;;;;20.00;9.40;;;15.40;99.90;;;;;;5038976;28;20708;-54
2024/03/09 11:01:26;;;;;;;19.33;10.33;;;15.40;99.90;;;;;;5038949;28;20208;-51
2024/03/09 11:03:52;;;;;;;18.07;10.00;;;15.30;99.90;;;;;;5030652;28;20195;-56
2024/03/09 11:06:19;;;;;;;19.53;10.00;;;14.70;99.90;;;;;;5038838;28;20199;-55
2024/03/09 11:08:50;;;;;;;19.63;10.00;;;14.40;99.90;;;;;;5038518;28;20183;-56
2024/03/09 11:11:18;;;;;;;17.27;9.60;;;14.40;99.90;;;;;;5030437;28;20198;-55
2024/03/09 11:13:47;;;;;;;18.07;9.60;;;14.40;99.90;;;;;;5038874;28;20203;-55
2024/03/09 11:16:13;;;;;;;19.10;9.60;;;14.60;99.90;;;;;;5038569;28;20184;-51
2024/03/09 11:18:50;;;;;;;20.93;10.00;;;14.60;99.90;;;;;;5030075;28;20179;-54
2024/03/09 11:21:26;;;;;;;17.83;10.00;;;14.60;99.90;;;;;;5046911;28;20294;-54
2024/03/09 11:23:53;;;;;;;20.07;10.57;;;14.10;99.90;;;;;;5029385;28;20214;-52
2024/03/09 11:26:23;;;;;;;21.03;10.23;;;13.60;99.90;;;;;;5038369;28;20526;-56
2024/03/09 11:28:51;;;;;;;19.40;9.77;;;13.70;99.90;;;;;;5030066;28;20187;-55
2024/03/09 11:31:26;;;;;;;20.33;10.20;;;14.10;99.90;;;;;;5030053;28;20257;-52
2024/03/09 11:33:57;;;;;;;16.57;9.47;;;14.20;99.90;;;;;;5030257;28;20203;-53
2024/03/09 11:36:45;;;;;;;17.80;10.27;;;14.50;99.90;;;;;;5030323;28;20199;-53
2024/03/09 11:39:12;;;;;;;18.83;10.20;;;14.70;99.90;;;;;;5037663;28;20524;-53
2024/03/09 11:41:44;;;;;;;22.07;10.43;;;14.70;99.90;;;;;;5038273;28;20675;-53
2024/03/09 11:44:10;;;;;;;20.67;10.27;;;14.90;99.90;;;;;;5029519;28;20211;-53
2024/03/09 11:46:36;;;;;;;22.93;11.17;;;15.10;99.90;;;;;;5030255;28;20236;-58
2024/03/09 11:49:05;;;;;;;19.27;10.20;;;15.40;99.90;;;;;;5038570;28;20191;-52
2024/03/09 11:51:35;;;;;;;17.73;10.47;;;15.40;99.90;;;;;;5045057;28;20536;-53
2024/03/09 11:54:06;;;;;;;20.13;10.73;;;15.50;99.90;;;;;;5037928;28;20249;-55
2024/03/09 11:56:32;;;;;;;18.03;10.00;;;15.20;99.90;;;;;;5034502;28;20183;-56
2024/03/09 11:58:58;;;;;;;18.33;9.97;;;15.40;99.90;;;;;;5040616;28;20647;-55
2024/03/09 12:01:24;;;;;;;16.87;9.60;;;15.50;99.90;;;;;;5028650;28;20220;-54
2024/03/09 12:03:58;;;;;;;18.70;9.93;;;15.40;99.90;;;;;;5029618;28;20498;-57
2024/03/09 12:06:23;;;;;;;21.23;9.97;;;15.10;99.90;;;;;;5049468;28;20194;-57
2024/03/09 12:08:51;;;;;;;19.53;10.63;;;15.30;99.90;;;;;;5033627;28;20184;-52
2024/03/09 12:11:23;;;;;;;18.10;10.33;;;15.20;99.90;;;;;;5029284;28;20188;-56
2024/03/09 12:13:52;;;;;;;17.33;9.80;;;15.50;99.90;;;;;;5036707;28;20293;-56
2024/03/09 12:16:19;;;;;;;19.53;10.30;;;15.60;99.90;;;;;;5037810;28;20188;-59
2024/03/09 12:18:49;;;;;;;18.60;9.77;;;15.80;99.90;;;;;;5035897;28;20246;-55
2024/03/09 12:21:16;;;;;;;19.07;9.87;;;15.70;99.90;;;;;;5040756;28;20318;-53
2024/03/09 12:23:48;;;;;;;18.13;9.23;;;16.00;99.90;;;;;;5048385;28;20210;-53
2024/03/09 12:26:13;;;;;;;22.17;9.40;;;16.30;99.90;;;;;;5030181;28;20556;-58
2024/03/09 12:28:46;;;;;;;18.13;9.73;;;16.60;99.90;;;;;;5034620;28;20183;-53
2024/03/09 12:31:13;;;;;;;20.80;9.73;;;16.40;99.90;;;;;;5030466;28;20188;-52
2024/03/09 12:33:40;;;;;;;21.77;10.07;;;15.70;99.90;;;;;;5043254;28;20203;-55
2024/03/09 12:36:08;;;;;;;31.47;12.03;;;15.60;99.90;;;;;;5032356;28;20191;-57
2024/03/09 12:38:36;;;;;;;16.77;9.50;;;16.00;99.90;;;;;;5043261;28;20287;-56
2024/03/09 12:41:02;;;;;;;18.17;9.73;;;16.10;99.90;;;;;;5046490;28;20213;-54
2024/03/09 12:43:29;;;;;;;19.83;9.90;;;16.20;99.90;;;;;;5036230;28;20204;-55
2024/03/09 12:45:55;;;;;;;23.53;11.10;;;16.30;99.90;;;;;;5029191;28;20581;-53
2024/03/09 12:48:23;;;;;;;19.50;10.10;;;16.30;99.90;;;;;;5039771;28;20182;-56
2024/03/09 12:50:53;;;;;;;21.23;10.37;;;16.40;99.90;;;;;;5033610;28;20187;-56
2024/03/09 12:53:21;;;;;;;23.17;11.20;;;16.50;99.90;;;;;;5037267;28;20253;-50
2024/03/09 12:55:49;;;;;;;16.07;9.60;;;16.70;99.90;;;;;;5028902;28;20199;-57
2024/03/09 12:58:17;;;;;;;19.90;9.97;;;17.00;99.90;;;;;;5036274;28;20582;-53